sensor_id;sensor_type;location;lat;lon;timestamp;temperature;humidity
16505;HTU21D;8365;51.030;4.696;2022-07-04T00:02:08;16.27;118.99
16505;HTU21D;8365;51.030;4.696;2022-07-04T00:04:39;16.21;118.99
16505;HTU21D;8365;51.030;4.696;2022-07-04T00:07:09;16.29;118.99
16505;HTU21D;8365;51.030;4.696;2022-07-04T00:09:40;16.35;118.99
16505;HTU21D;8365;51.030;4.696;2022-07-04T00:12:12;16.37;118.99
16505;HTU21D;8365;51.030;4.696;2022-07-04T00:14:43;16.39;118.99
16505;HTU21D;8365;51.030;4.696;2022-07-04T00:17:13;16.41;118.99
16505;HTU21D;8365;51.030;4.696;2022-07-04T00:19:44;16.33;118.58
16505;HTU21D;8365;51.030;4.696;2022-07-04T00:22:14;16.32;118.02
16505;HTU21D;8365;51.030;4.696;2022-07-04T00:24:44;16.29;118.61
16505;HTU21D;8365;51.030;4.696;2022-07-04T00:27:15;16.19;118.58
16505;HTU21D;8365;51.030;4.696;2022-07-04T00:29:46;16.21;118.99
16505;HTU21D;8365;51.030;4.696;2022-07-04T00:32:16;16.18;118.99
16505;HTU21D;8365;51.030;4.696;2022-07-04T00:34:47;16.11;118.99
16505;HTU21D;8365;51.030;4.696;2022-07-04T00:37:20;16.08;118.99
16505;HTU21D;8365;51.030;4.696;2022-07-04T00:39:50;16.07;118.99
16505;HTU21D;8365;51.030;4.696;2022-07-04T00:42:21;16.06;118.99
16505;HTU21D;8365;51.030;4.696;2022-07-04T00:44:54;16.06;118.99
16505;HTU21D;8365;51.030;4.696;2022-07-04T00:47:24;16.02;118.99
16505;HTU21D;8365;51.030;4.696;2022-07-04T00:49:55;15.98;118.99
16505;HTU21D;8365;51.030;4.696;2022-07-04T00:52:25;15.98;118.99
16505;HTU21D;8365;51.030;4.696;2022-07-04T00:54:56;16.00;118.99
16505;HTU21D;8365;51.030;4.696;2022-07-04T00:57:26;16.02;118.99
16505;HTU21D;8365;51.030;4.696;2022-07-04T00:59:57;15.99;118.99
16505;HTU21D;8365;51.030;4.696;2022-07-04T01:02:27;15.91;118.99
16505;HTU21D;8365;51.030;4.696;2022-07-04T01:04:58;15.87;118.99
16505;HTU21D;8365;51.030;4.696;2022-07-04T01:07:28;15.91;118.99
16505;HTU21D;8365;51.030;4.696;2022-07-04T01:09:59;15.83;118.99
16505;HTU21D;8365;51.030;4.696;2022-07-04T01:12:30;15.80;118.99
16505;HTU21D;8365;51.030;4.696;2022-07-04T01:15:01;15.76;118.99
16505;HTU21D;8365;51.030;4.696;2022-07-04T01:17:31;15.69;118.99
16505;HTU21D;8365;51.030;4.696;2022-07-04T01:20:02;15.69;118.99
16505;HTU21D;8365;51.030;4.696;2022-07-04T01:22:33;15.66;118.99
16505;HTU21D;8365;51.030;4.696;2022-07-04T01:25:04;15.66;118.99
16505;HTU21D;8365;51.030;4.696;2022-07-04T01:27:35;15.66;118.99
16505;HTU21D;8365;51.030;4.696;2022-07-04T01:30:06;15.68;118.99
16505;HTU21D;8365;51.030;4.696;2022-07-04T01:32:36;15.63;118.99
16505;HTU21D;8365;51.030;4.696;2022-07-04T01:35:07;15.60;118.99
16505;HTU21D;8365;51.030;4.696;2022-07-04T01:37:38;15.65;118.99
16505;HTU21D;8365;51.030;4.696;2022-07-04T01:40:09;15.65;118.99
16505;HTU21D;8365;51.030;4.696;2022-07-04T01:42:40;15.59;118.99
16505;HTU21D;8365;51.030;4.696;2022-07-04T01:45:11;15.61;118.99
16505;HTU21D;8365;51.030;4.696;2022-07-04T01:47:42;15.63;118.75
16505;HTU21D;8365;51.030;4.696;2022-07-04T01:50:13;15.58;118.99
16505;HTU21D;8365;51.030;4.696;2022-07-04T01:52:43;15.56;118.99
16505;HTU21D;8365;51.030;4.696;2022-07-04T01:55:14;15.52;118.78
16505;HTU21D;8365;51.030;4.696;2022-07-04T01:57:44;15.46;118.99
16505;HTU21D;8365;51.030;4.696;2022-07-04T02:00:15;15.46;118.99
16505;HTU21D;8365;51.030;4.696;2022-07-04T02:03:03;15.44;118.99
16505;HTU21D;8365;51.030;4.696;2022-07-04T02:05:37;15.43;118.99
16505;HTU21D;8365;51.030;4.696;2022-07-04T02:08:07;15.38;118.99
16505;HTU21D;8365;51.030;4.696;2022-07-04T02:10:41;15.33;118.99
16505;HTU21D;8365;51.030;4.696;2022-07-04T02:13:11;15.37;118.99
16505;HTU21D;8365;51.030;4.696;2022-07-04T02:15:42;15.30;118.99
16505;HTU21D;8365;51.030;4.696;2022-07-04T02:18:12;15.31;118.99
16505;HTU21D;8365;51.030;4.696;2022-07-04T02:20:43;15.19;118.99
16505;HTU21D;8365;51.030;4.696;2022-07-04T02:23:13;15.17;118.99
16505;HTU21D;8365;51.030;4.696;2022-07-04T02:25:44;15.10;118.99
16505;HTU21D;8365;51.030;4.696;2022-07-04T02:28:14;14.99;118.99
16505;HTU21D;8365;51.030;4.696;2022-07-04T02:30:45;14.93;118.99
16505;HTU21D;8365;51.030;4.696;2022-07-04T02:33:15;14.93;118.99
16505;HTU21D;8365;51.030;4.696;2022-07-04T02:35:46;14.94;118.99
16505;HTU21D;8365;51.030;4.696;2022-07-04T02:38:16;14.96;118.99
16505;HTU21D;8365;51.030;4.696;2022-07-04T02:40:46;15.02;118.99
16505;HTU21D;8365;51.030;4.696;2022-07-04T02:43:19;15.00;118.99
16505;HTU21D;8365;51.030;4.696;2022-07-04T02:45:50;15.00;118.99
16505;HTU21D;8365;51.030;4.696;2022-07-04T02:48:20;15.00;118.99
16505;HTU21D;8365;51.030;4.696;2022-07-04T02:50:50;14.97;118.99
16505;HTU21D;8365;51.030;4.696;2022-07-04T02:53:21;14.93;118.99
16505;HTU21D;8365;51.030;4.696;2022-07-04T02:55:52;14.74;118.99
16505;HTU21D;8365;51.030;4.696;2022-07-04T02:58:22;14.77;118.99
16505;HTU21D;8365;51.030;4.696;2022-07-04T03:00:52;14.72;118.99
16505;HTU21D;8365;51.030;4.696;2022-07-04T03:03:23;14.83;118.99
16505;HTU21D;8365;51.030;4.696;2022-07-04T03:05:53;14.77;118.99
16505;HTU21D;8365;51.030;4.696;2022-07-04T03:08:24;14.72;118.99
16505;HTU21D;8365;51.030;4.696;2022-07-04T03:10:57;14.87;118.99
16505;HTU21D;8365;51.030;4.696;2022-07-04T03:13:27;14.77;118.99
16505;HTU21D;8365;51.030;4.696;2022-07-04T03:15:58;14.93;118.99
16505;HTU21D;8365;51.030;4.696;2022-07-04T03:18:28;14.98;118.99
16505;HTU21D;8365;51.030;4.696;2022-07-04T03:20:59;14.89;118.99
16505;HTU21D;8365;51.030;4.696;2022-07-04T03:23:31;14.87;118.99
16505;HTU21D;8365;51.030;4.696;2022-07-04T03:26:02;14.98;118.99
16505;HTU21D;8365;51.030;4.696;2022-07-04T03:28:33;15.01;118.99
16505;HTU21D;8365;51.030;4.696;2022-07-04T03:31:03;15.01;118.99
16505;HTU21D;8365;51.030;4.696;2022-07-04T03:33:33;15.06;118.99
16505;HTU21D;8365;51.030;4.696;2022-07-04T03:36:04;15.01;118.99
16505;HTU21D;8365;51.030;4.696;2022-07-04T03:38:34;14.95;118.99
16505;HTU21D;8365;51.030;4.696;2022-07-04T03:41:05;14.97;118.99
16505;HTU21D;8365;51.030;4.696;2022-07-04T03:43:35;14.99;118.99
16505;HTU21D;8365;51.030;4.696;2022-07-04T03:46:06;14.89;118.99
16505;HTU21D;8365;51.030;4.696;2022-07-04T03:48:36;14.91;118.99
16505;HTU21D;8365;51.030;4.696;2022-07-04T03:51:11;14.88;118.99
16505;HTU21D;8365;51.030;4.696;2022-07-04T03:53:44;14.86;118.99
16505;HTU21D;8365;51.030;4.696;2022-07-04T03:56:14;14.84;118.99
16505;HTU21D;8365;51.030;4.696;2022-07-04T03:58:45;14.83;118.99
16505;HTU21D;8365;51.030;4.696;2022-07-04T04:01:19;14.83;118.99
16505;HTU21D;8365;51.030;4.696;2022-07-04T04:03:49;14.87;118.99
16505;HTU21D;8365;51.030;4.696;2022-07-04T04:06:52;14.88;118.99
16505;HTU21D;8365;51.030;4.696;2022-07-04T04:09:22;14.88;118.99
16505;HTU21D;8365;51.030;4.696;2022-07-04T04:11:54;14.91;118.99
16505;HTU21D;8365;51.030;4.696;2022-07-04T04:14:25;14.94;118.99
16505;HTU21D;8365;51.030;4.696;2022-07-04T04:16:57;14.95;118.99
16505;HTU21D;8365;51.030;4.696;2022-07-04T04:19:30;14.91;118.99
16505;HTU21D;8365;51.030;4.696;2022-07-04T04:22:00;14.87;118.99
16505;HTU21D;8365;51.030;4.696;2022-07-04T04:24:31;14.94;118.99
16505;HTU21D;8365;51.030;4.696;2022-07-04T04:27:01;15.06;118.99
16505;HTU21D;8365;51.030;4.696;2022-07-04T04:29:32;15.14;118.99
16505;HTU21D;8365;51.030;4.696;2022-07-04T04:32:02;15.15;118.99
16505;HTU21D;8365;51.030;4.696;2022-07-04T04:34:33;15.14;118.99
16505;HTU21D;8365;51.030;4.696;2022-07-04T04:37:04;15.24;118.99
16505;HTU21D;8365;51.030;4.696;2022-07-04T04:39:34;15.33;118.99
16505;HTU21D;8365;51.030;4.696;2022-07-04T04:42:05;15.42;118.99
16505;HTU21D;8365;51.030;4.696;2022-07-04T04:44:35;15.40;118.99
16505;HTU21D;8365;51.030;4.696;2022-07-04T04:47:06;15.42;118.99
16505;HTU21D;8365;51.030;4.696;2022-07-04T04:49:36;15.48;118.99
16505;HTU21D;8365;51.030;4.696;2022-07-04T04:52:07;15.54;118.99
16505;HTU21D;8365;51.030;4.696;2022-07-04T04:54:38;15.59;118.99
16505;HTU21D;8365;51.030;4.696;2022-07-04T04:57:08;15.66;118.99
16505;HTU21D;8365;51.030;4.696;2022-07-04T04:59:39;15.63;118.99
16505;HTU21D;8365;51.030;4.696;2022-07-04T05:02:09;15.70;118.99
16505;HTU21D;8365;51.030;4.696;2022-07-04T05:04:40;15.67;118.99
16505;HTU21D;8365;51.030;4.696;2022-07-04T05:07:10;15.84;118.99
16505;HTU21D;8365;51.030;4.696;2022-07-04T05:09:41;15.72;118.99
16505;HTU21D;8365;51.030;4.696;2022-07-04T05:12:11;15.88;118.99
16505;HTU21D;8365;51.030;4.696;2022-07-04T05:14:42;15.89;118.99
16505;HTU21D;8365;51.030;4.696;2022-07-04T05:17:12;15.89;118.99
16505;HTU21D;8365;51.030;4.696;2022-07-04T05:19:43;16.03;118.99
16505;HTU21D;8365;51.030;4.696;2022-07-04T05:22:16;15.96;118.99
16505;HTU21D;8365;51.030;4.696;2022-07-04T05:24:46;16.12;118.99
16505;HTU21D;8365;51.030;4.696;2022-07-04T05:27:19;16.06;118.99
16505;HTU21D;8365;51.030;4.696;2022-07-04T05:29:50;15.85;118.99
16505;HTU21D;8365;51.030;4.696;2022-07-04T05:32:20;15.93;118.99
16505;HTU21D;8365;51.030;4.696;2022-07-04T05:34:50;16.04;118.99
16505;HTU21D;8365;51.030;4.696;2022-07-04T05:37:22;16.07;118.99
16505;HTU21D;8365;51.030;4.696;2022-07-04T05:39:52;16.21;118.99
16505;HTU21D;8365;51.030;4.696;2022-07-04T05:42:22;15.91;118.99
16505;HTU21D;8365;51.030;4.696;2022-07-04T05:44:53;15.83;118.99
16505;HTU21D;8365;51.030;4.696;2022-07-04T05:47:23;15.96;118.99
16505;HTU21D;8365;51.030;4.696;2022-07-04T05:49:55;16.11;118.99
16505;HTU21D;8365;51.030;4.696;2022-07-04T05:52:26;16.10;118.99
16505;HTU21D;8365;51.030;4.696;2022-07-04T05:54:56;16.36;118.99
16505;HTU21D;8365;51.030;4.696;2022-07-04T05:57:27;16.45;118.99
16505;HTU21D;8365;51.030;4.696;2022-07-04T05:59:57;16.47;118.99
16505;HTU21D;8365;51.030;4.696;2022-07-04T06:02:28;16.54;118.99
16505;HTU21D;8365;51.030;4.696;2022-07-04T06:04:58;16.73;118.99
16505;HTU21D;8365;51.030;4.696;2022-07-04T06:07:29;16.69;118.99
16505;HTU21D;8365;51.030;4.696;2022-07-04T06:09:59;16.88;118.29
16505;HTU21D;8365;51.030;4.696;2022-07-04T06:12:30;16.84;116.83
16505;HTU21D;8365;51.030;4.696;2022-07-04T06:15:01;17.06;115.67
16505;HTU21D;8365;51.030;4.696;2022-07-04T06:17:31;17.02;118.34
16505;HTU21D;8365;51.030;4.696;2022-07-04T06:20:02;17.02;117.04
16505;HTU21D;8365;51.030;4.696;2022-07-04T06:22:41;17.21;116.03
16505;HTU21D;8365;51.030;4.696;2022-07-04T06:25:18;17.26;116.21
16505;HTU21D;8365;51.030;4.696;2022-07-04T06:27:50;17.37;115.16
16505;HTU21D;8365;51.030;4.696;2022-07-04T06:30:21;17.55;113.80
16505;HTU21D;8365;51.030;4.696;2022-07-04T06:32:54;17.69;111.83
16505;HTU21D;8365;51.030;4.696;2022-07-04T06:35:27;17.70;110.65
16505;HTU21D;8365;51.030;4.696;2022-07-04T06:38:20;17.87;110.74
16505;HTU21D;8365;51.030;4.696;2022-07-04T06:40:53;18.04;110.73
16505;HTU21D;8365;51.030;4.696;2022-07-04T06:43:24;18.20;109.28
16505;HTU21D;8365;51.030;4.696;2022-07-04T06:45:55;18.36;108.01
16505;HTU21D;8365;51.030;4.696;2022-07-04T06:48:27;18.50;106.56
16505;HTU21D;8365;51.030;4.696;2022-07-04T06:50:58;18.48;105.89
16505;HTU21D;8365;51.030;4.696;2022-07-04T06:53:29;18.35;105.87
16505;HTU21D;8365;51.030;4.696;2022-07-04T06:55:59;18.41;106.38
16505;HTU21D;8365;51.030;4.696;2022-07-04T06:58:29;18.59;106.50
16505;HTU21D;8365;51.030;4.696;2022-07-04T07:01:00;18.71;105.83
16505;HTU21D;8365;51.030;4.696;2022-07-04T07:03:30;18.69;104.29
16505;HTU21D;8365;51.030;4.696;2022-07-04T07:06:01;18.91;103.60
16505;HTU21D;8365;51.030;4.696;2022-07-04T07:08:32;18.84;101.50
16505;HTU21D;8365;51.030;4.696;2022-07-04T07:11:03;18.80;103.51
16505;HTU21D;8365;51.030;4.696;2022-07-04T07:13:47;18.91;103.46
16505;HTU21D;8365;51.030;4.696;2022-07-04T07:16:18;18.95;104.56
16505;HTU21D;8365;51.030;4.696;2022-07-04T07:18:49;19.21;104.00
16505;HTU21D;8365;51.030;4.696;2022-07-04T07:21:19;19.20;103.99
16505;HTU21D;8365;51.030;4.696;2022-07-04T07:23:50;19.33;102.92
16505;HTU21D;8365;51.030;4.696;2022-07-04T07:26:20;19.31;102.63
16505;HTU21D;8365;51.030;4.696;2022-07-04T07:28:51;19.51;102.48
16505;HTU21D;8365;51.030;4.696;2022-07-04T07:31:21;19.38;100.96
16505;HTU21D;8365;51.030;4.696;2022-07-04T07:33:52;19.45;102.44
16505;HTU21D;8365;51.030;4.696;2022-07-04T07:36:22;19.62;101.77
16505;HTU21D;8365;51.030;4.696;2022-07-04T07:38:53;19.74;101.54
16505;HTU21D;8365;51.030;4.696;2022-07-04T07:41:26;19.95;102.95
16505;HTU21D;8365;51.030;4.696;2022-07-04T07:43:56;20.09;101.01
16505;HTU21D;8365;51.030;4.696;2022-07-04T07:46:27;20.00;99.32
16505;HTU21D;8365;51.030;4.696;2022-07-04T07:48:58;20.07;98.80
16505;HTU21D;8365;51.030;4.696;2022-07-04T07:51:29;20.05;96.70
16505;HTU21D;8365;51.030;4.696;2022-07-04T07:53:59;19.90;96.70
16505;HTU21D;8365;51.030;4.696;2022-07-04T07:56:30;19.91;98.40
16505;HTU21D;8365;51.030;4.696;2022-07-04T07:59:00;19.99;97.60
16505;HTU21D;8365;51.030;4.696;2022-07-04T08:01:31;20.26;97.29
16505;HTU21D;8365;51.030;4.696;2022-07-04T08:04:01;20.41;98.19
16505;HTU21D;8365;51.030;4.696;2022-07-04T08:06:50;20.56;95.43
16505;HTU21D;8365;51.030;4.696;2022-07-04T08:09:21;20.34;94.49
16505;HTU21D;8365;51.030;4.696;2022-07-04T08:11:51;20.45;95.34
16505;HTU21D;8365;51.030;4.696;2022-07-04T08:14:25;20.51;95.56
16505;HTU21D;8365;51.030;4.696;2022-07-04T08:16:57;20.76;95.74
16505;HTU21D;8365;51.030;4.696;2022-07-04T08:19:27;20.83;95.14
16505;HTU21D;8365;51.030;4.696;2022-07-04T08:21:58;21.02;93.48
16505;HTU21D;8365;51.030;4.696;2022-07-04T08:24:28;20.98;93.37
16505;HTU21D;8365;51.030;4.696;2022-07-04T08:26:59;21.04;92.05
16505;HTU21D;8365;51.030;4.696;2022-07-04T08:29:29;21.04;90.81
16505;HTU21D;8365;51.030;4.696;2022-07-04T08:32:02;21.17;91.95
16505;HTU21D;8365;51.030;4.696;2022-07-04T08:34:34;20.91;90.09
16505;HTU21D;8365;51.030;4.696;2022-07-04T08:37:05;21.05;86.93
16505;HTU21D;8365;51.030;4.696;2022-07-04T08:39:35;20.92;88.55
16505;HTU21D;8365;51.030;4.696;2022-07-04T08:42:10;21.20;88.52
16505;HTU21D;8365;51.030;4.696;2022-07-04T08:44:47;21.47;86.18
16505;HTU21D;8365;51.030;4.696;2022-07-04T08:47:23;21.16;86.03
16505;HTU21D;8365;51.030;4.696;2022-07-04T08:52:40;21.25;86.74
16505;HTU21D;8365;51.030;4.696;2022-07-04T08:55:12;21.49;86.01
16505;HTU21D;8365;51.030;4.696;2022-07-04T08:58:02;21.87;84.73
16505;HTU21D;8365;51.030;4.696;2022-07-04T09:00:52;21.99;82.33
16505;HTU21D;8365;51.030;4.696;2022-07-04T09:03:24;21.81;83.34
16505;HTU21D;8365;51.030;4.696;2022-07-04T09:05:56;21.84;82.37
16505;HTU21D;8365;51.030;4.696;2022-07-04T09:08:27;22.20;81.38
16505;HTU21D;8365;51.030;4.696;2022-07-04T09:10:58;22.38;82.04
16505;HTU21D;8365;51.030;4.696;2022-07-04T09:13:29;22.40;80.73
16505;HTU21D;8365;51.030;4.696;2022-07-04T09:16:01;22.21;78.42
16505;HTU21D;8365;51.030;4.696;2022-07-04T09:18:35;22.09;80.07
16505;HTU21D;8365;51.030;4.696;2022-07-04T09:21:07;21.93;80.12
16505;HTU21D;8365;51.030;4.696;2022-07-04T09:23:40;21.96;79.53
16505;HTU21D;8365;51.030;4.696;2022-07-04T09:26:21;22.29;78.88
16505;HTU21D;8365;51.030;4.696;2022-07-04T09:28:54;22.49;76.98
16505;HTU21D;8365;51.030;4.696;2022-07-04T09:31:29;22.39;79.47
16505;HTU21D;8365;51.030;4.696;2022-07-04T09:34:02;22.67;75.74
16505;HTU21D;8365;51.030;4.696;2022-07-04T09:36:44;22.95;76.11
16505;HTU21D;8365;51.030;4.696;2022-07-04T09:39:17;22.80;73.52
16505;HTU21D;8365;51.030;4.696;2022-07-04T09:41:58;22.68;72.65
16505;HTU21D;8365;51.030;4.696;2022-07-04T09:44:44;22.93;73.82
16505;HTU21D;8365;51.030;4.696;2022-07-04T09:47:26;23.34;71.87
16505;HTU21D;8365;51.030;4.696;2022-07-04T09:50:13;23.15;72.22
16505;HTU21D;8365;51.030;4.696;2022-07-04T09:55:36;23.22;69.35
16505;HTU21D;8365;51.030;4.696;2022-07-04T09:58:11;23.39;67.07
16505;HTU21D;8365;51.030;4.696;2022-07-04T10:00:46;23.66;68.66
16505;HTU21D;8365;51.030;4.696;2022-07-04T10:03:31;24.17;67.88
16505;HTU21D;8365;51.030;4.696;2022-07-04T10:06:11;24.56;65.56
16505;HTU21D;8365;51.030;4.696;2022-07-04T10:08:43;25.14;66.97
16505;HTU21D;8365;51.030;4.696;2022-07-04T10:11:14;24.79;66.94
16505;HTU21D;8365;51.030;4.696;2022-07-04T10:13:44;25.24;62.51
16505;HTU21D;8365;51.030;4.696;2022-07-04T10:16:15;24.98;67.39
16505;HTU21D;8365;51.030;4.696;2022-07-04T10:18:46;24.79;66.43
16505;HTU21D;8365;51.030;4.696;2022-07-04T10:21:17;24.79;66.69
16505;HTU21D;8365;51.030;4.696;2022-07-04T10:23:49;24.44;66.49
16505;HTU21D;8365;51.030;4.696;2022-07-04T10:26:21;25.25;63.32
16505;HTU21D;8365;51.030;4.696;2022-07-04T10:28:52;26.34;60.20
16505;HTU21D;8365;51.030;4.696;2022-07-04T10:31:27;27.44;55.72
16505;HTU21D;8365;51.030;4.696;2022-07-04T10:33:59;27.73;53.57
16505;HTU21D;8365;51.030;4.696;2022-07-04T10:36:33;28.50;50.18
16505;HTU21D;8365;51.030;4.696;2022-07-04T10:39:04;28.77;45.52
16505;HTU21D;8365;51.030;4.696;2022-07-04T10:41:35;28.46;47.97
16505;HTU21D;8365;51.030;4.696;2022-07-04T10:44:07;28.84;45.75
16505;HTU21D;8365;51.030;4.696;2022-07-04T10:46:50;28.26;46.24
16505;HTU21D;8365;51.030;4.696;2022-07-04T10:49:24;28.16;45.79
16505;HTU21D;8365;51.030;4.696;2022-07-04T10:52:09;30.03;41.39
16505;HTU21D;8365;51.030;4.696;2022-07-04T10:54:44;29.72;42.93
16505;HTU21D;8365;51.030;4.696;2022-07-04T10:57:20;27.86;48.12
16505;HTU21D;8365;51.030;4.696;2022-07-04T11:02:28;26.91;55.61
16505;HTU21D;8365;51.030;4.696;2022-07-04T11:18:10;28.74;47.76
16505;HTU21D;8365;51.030;4.696;2022-07-04T11:20:42;29.16;47.04
16505;HTU21D;8365;51.030;4.696;2022-07-04T11:23:18;29.30;46.30
16505;HTU21D;8365;51.030;4.696;2022-07-04T11:25:54;30.07;45.83
16505;HTU21D;8365;51.030;4.696;2022-07-04T11:28:28;30.64;38.92
16505;HTU21D;8365;51.030;4.696;2022-07-04T11:31:00;30.37;39.12
16505;HTU21D;8365;51.030;4.696;2022-07-04T11:33:32;28.93;44.84
16505;HTU21D;8365;51.030;4.696;2022-07-04T11:36:12;28.91;45.70
16505;HTU21D;8365;51.030;4.696;2022-07-04T11:38:57;28.31;48.77
16505;HTU21D;8365;51.030;4.696;2022-07-04T11:41:30;29.42;44.40
16505;HTU21D;8365;51.030;4.696;2022-07-04T11:44:21;29.61;45.02
16505;HTU21D;8365;51.030;4.696;2022-07-04T11:47:19;30.59;40.12
16505;HTU21D;8365;51.030;4.696;2022-07-04T11:49:51;30.56;41.65
16505;HTU21D;8365;51.030;4.696;2022-07-04T11:52:24;32.20;38.14
16505;HTU21D;8365;51.030;4.696;2022-07-04T11:54:54;32.02;36.59
16505;HTU21D;8365;51.030;4.696;2022-07-04T11:57:29;31.45;36.60
16505;HTU21D;8365;51.030;4.696;2022-07-04T12:00:09;31.99;37.69
16505;HTU21D;8365;51.030;4.696;2022-07-04T12:02:44;32.53;37.34
16505;HTU21D;8365;51.030;4.696;2022-07-04T12:05:15;33.52;35.95
16505;HTU21D;8365;51.030;4.696;2022-07-04T12:07:48;32.22;37.67
16505;HTU21D;8365;51.030;4.696;2022-07-04T12:10:23;30.51;42.61
16505;HTU21D;8365;51.030;4.696;2022-07-04T12:15:45;29.39;47.66
16505;HTU21D;8365;51.030;4.696;2022-07-04T12:18:29;29.81;48.45
16505;HTU21D;8365;51.030;4.696;2022-07-04T12:21:31;30.23;43.80
16505;HTU21D;8365;51.030;4.696;2022-07-04T12:24:04;30.05;43.16
16505;HTU21D;8365;51.030;4.696;2022-07-04T12:26:45;28.91;48.31
16505;HTU21D;8365;51.030;4.696;2022-07-04T12:29:25;27.29;54.14
16505;HTU21D;8365;51.030;4.696;2022-07-04T12:31:57;27.86;53.20
16505;HTU21D;8365;51.030;4.696;2022-07-04T12:34:27;28.56;49.13
16505;HTU21D;8365;51.030;4.696;2022-07-04T12:37:08;29.24;47.79
16505;HTU21D;8365;51.030;4.696;2022-07-04T12:39:40;30.47;42.94
16505;HTU21D;8365;51.030;4.696;2022-07-04T12:42:16;31.50;39.46
16505;HTU21D;8365;51.030;4.696;2022-07-04T12:44:47;31.76;39.43
16505;HTU21D;8365;51.030;4.696;2022-07-04T12:47:21;31.80;40.17
16505;HTU21D;8365;51.030;4.696;2022-07-04T12:49:52;30.76;41.16
16505;HTU21D;8365;51.030;4.696;2022-07-04T12:52:27;30.40;41.82
16505;HTU21D;8365;51.030;4.696;2022-07-04T12:55:06;30.12;42.67
16505;HTU21D;8365;51.030;4.696;2022-07-04T12:57:37;30.07;43.67
16505;HTU21D;8365;51.030;4.696;2022-07-04T13:00:08;30.28;42.38
16505;HTU21D;8365;51.030;4.696;2022-07-04T13:02:39;31.64;41.74
16505;HTU21D;8365;51.030;4.696;2022-07-04T13:05:09;30.81;41.10
16505;HTU21D;8365;51.030;4.696;2022-07-04T13:07:40;30.20;41.84
16505;HTU21D;8365;51.030;4.696;2022-07-04T13:10:10;29.81;44.35
16505;HTU21D;8365;51.030;4.696;2022-07-04T13:12:41;28.61;45.19
16505;HTU21D;8365;51.030;4.696;2022-07-04T13:15:11;29.08;47.03
16505;HTU21D;8365;51.030;4.696;2022-07-04T13:17:42;29.96;42.49
16505;HTU21D;8365;51.030;4.696;2022-07-04T13:20:12;29.28;42.02
16505;HTU21D;8365;51.030;4.696;2022-07-04T13:22:43;29.51;43.86
16505;HTU21D;8365;51.030;4.696;2022-07-04T13:25:13;30.68;42.16
16505;HTU21D;8365;51.030;4.696;2022-07-04T13:27:44;30.92;40.31
16505;HTU21D;8365;51.030;4.696;2022-07-04T13:30:14;31.94;36.89
16505;HTU21D;8365;51.030;4.696;2022-07-04T13:32:45;32.22;34.10
16505;HTU21D;8365;51.030;4.696;2022-07-04T13:35:15;32.66;34.64
16505;HTU21D;8365;51.030;4.696;2022-07-04T13:37:46;32.31;34.83
16505;HTU21D;8365;51.030;4.696;2022-07-04T13:40:16;32.07;36.40
16505;HTU21D;8365;51.030;4.696;2022-07-04T13:42:47;31.35;36.36
16505;HTU21D;8365;51.030;4.696;2022-07-04T13:45:29;30.67;41.37
16505;HTU21D;8365;51.030;4.696;2022-07-04T13:48:02;32.58;35.91
16505;HTU21D;8365;51.030;4.696;2022-07-04T13:50:33;33.61;33.40
16505;HTU21D;8365;51.030;4.696;2022-07-04T13:53:08;33.89;31.63
16505;HTU21D;8365;51.030;4.696;2022-07-04T13:55:39;32.98;32.29
16505;HTU21D;8365;51.030;4.696;2022-07-04T13:58:10;30.78;36.30
16505;HTU21D;8365;51.030;4.696;2022-07-04T14:00:40;29.15;39.68
16505;HTU21D;8365;51.030;4.696;2022-07-04T14:03:15;28.56;42.33
16505;HTU21D;8365;51.030;4.696;2022-07-04T14:05:48;27.78;44.35
16505;HTU21D;8365;51.030;4.696;2022-07-04T14:08:19;27.71;45.77
16505;HTU21D;8365;51.030;4.696;2022-07-04T14:10:51;28.06;46.76
16505;HTU21D;8365;51.030;4.696;2022-07-04T14:13:22;29.26;42.18
16505;HTU21D;8365;51.030;4.696;2022-07-04T14:15:52;30.63;38.25
16505;HTU21D;8365;51.030;4.696;2022-07-04T14:18:23;32.94;35.01
16505;HTU21D;8365;51.030;4.696;2022-07-04T14:20:53;32.07;34.85
16505;HTU21D;8365;51.030;4.696;2022-07-04T14:23:24;33.22;31.60
16505;HTU21D;8365;51.030;4.696;2022-07-04T14:26:14;30.35;37.49
16505;HTU21D;8365;51.030;4.696;2022-07-04T14:28:45;29.82;38.90
16505;HTU21D;8365;51.030;4.696;2022-07-04T14:31:18;30.10;37.70
16505;HTU21D;8365;51.030;4.696;2022-07-04T14:33:49;30.06;37.01
16505;HTU21D;8365;51.030;4.696;2022-07-04T14:36:19;30.38;37.51
16505;HTU21D;8365;51.030;4.696;2022-07-04T14:38:49;30.79;36.11
16505;HTU21D;8365;51.030;4.696;2022-07-04T14:41:20;30.71;36.05
16505;HTU21D;8365;51.030;4.696;2022-07-04T14:43:53;32.33;33.79
16505;HTU21D;8365;51.030;4.696;2022-07-04T14:46:24;31.22;35.00
16505;HTU21D;8365;51.030;4.696;2022-07-04T14:48:56;31.40;34.79
16505;HTU21D;8365;51.030;4.696;2022-07-04T14:51:26;32.22;32.63
16505;HTU21D;8365;51.030;4.696;2022-07-04T14:53:57;31.74;35.37
16505;HTU21D;8365;51.030;4.696;2022-07-04T14:56:27;31.38;33.31
16505;HTU21D;8365;51.030;4.696;2022-07-04T14:59:00;30.71;35.21
16505;HTU21D;8365;51.030;4.696;2022-07-04T15:01:31;32.45;31.28
16505;HTU21D;8365;51.030;4.696;2022-07-04T15:04:02;33.57;30.42
16505;HTU21D;8365;51.030;4.696;2022-07-04T15:06:33;34.49;29.28
16505;HTU21D;8365;51.030;4.696;2022-07-04T15:09:04;32.69;31.29
16505;HTU21D;8365;51.030;4.696;2022-07-04T15:11:35;31.15;35.92
16505;HTU21D;8365;51.030;4.696;2022-07-04T15:14:06;29.76;36.76
16505;HTU21D;8365;51.030;4.696;2022-07-04T15:16:36;28.91;39.42
16505;HTU21D;8365;51.030;4.696;2022-07-04T15:19:07;28.38;40.04
16505;HTU21D;8365;51.030;4.696;2022-07-04T15:21:37;28.52;40.75
16505;HTU21D;8365;51.030;4.696;2022-07-04T15:24:26;28.99;39.94
16505;HTU21D;8365;51.030;4.696;2022-07-04T15:26:57;28.84;41.45
16505;HTU21D;8365;51.030;4.696;2022-07-04T15:29:27;28.00;43.61
16505;HTU21D;8365;51.030;4.696;2022-07-04T15:31:58;27.35;45.79
16505;HTU21D;8365;51.030;4.696;2022-07-04T15:34:29;27.07;46.80
16505;HTU21D;8365;51.030;4.696;2022-07-04T15:36:59;27.22;46.89
16505;HTU21D;8365;51.030;4.696;2022-07-04T15:39:30;27.50;44.50
16505;HTU21D;8365;51.030;4.696;2022-07-04T15:42:00;28.30;45.12
16505;HTU21D;8365;51.030;4.696;2022-07-04T15:44:30;28.88;43.51
16505;HTU21D;8365;51.030;4.696;2022-07-04T15:47:01;30.12;40.75
16505;HTU21D;8365;51.030;4.696;2022-07-04T15:49:38;30.85;37.67
16505;HTU21D;8365;51.030;4.696;2022-07-04T15:52:08;29.59;41.35
16505;HTU21D;8365;51.030;4.696;2022-07-04T15:54:39;29.88;40.36
16505;HTU21D;8365;51.030;4.696;2022-07-04T15:57:09;31.39;37.82
16505;HTU21D;8365;51.030;4.696;2022-07-04T15:59:40;31.76;36.90
16505;HTU21D;8365;51.030;4.696;2022-07-04T16:02:11;31.14;37.47
16505;HTU21D;8365;51.030;4.696;2022-07-04T16:04:41;30.80;38.34
16505;HTU21D;8365;51.030;4.696;2022-07-04T16:07:12;30.53;38.85
16505;HTU21D;8365;51.030;4.696;2022-07-04T16:09:43;29.64;40.33
16505;HTU21D;8365;51.030;4.696;2022-07-04T16:12:14;29.78;40.79
16505;HTU21D;8365;51.030;4.696;2022-07-04T16:14:44;29.66;41.87
16505;HTU21D;8365;51.030;4.696;2022-07-04T16:17:14;30.27;39.78
16505;HTU21D;8365;51.030;4.696;2022-07-04T16:19:45;29.79;40.54